Time,TemperatureF,DewpointF,PressureIn,WindDirection,WindDirectionDegrees,WindSpeedMPH,WindSpeedGustMPH,Humidity,HourlyPrecipIn,Conditions,Clouds,dailyrainin,SoftwareType,DateUTC
2015-07-28 00:05:00,77.3,72.8,29.98,ESE,121,0.0,0.0,86,0.00,,,0.00,Wunderground v.1.15,2015-07-28 04:05:00,
2015-07-28 00:10:00,77.1,72.9,29.98,ESE,121,0.0,0.0,87,0.00,,,0.00,Wunderground v.1.15,2015-07-28 04:10:00,
2015-07-28 00:20:00,76.9,72.7,29.97,ESE,121,0.0,0.0,87,0.00,,,0.00,Wunderground v.1.15,2015-07-28 04:20:00,
2015-07-28 00:30:00,76.5,72.7,29.97,ESE,121,0.0,0.0,88,0.00,,,0.00,Wunderground v.1.15,2015-07-28 04:30:00,
2015-07-28 00:40:00,76.1,72.6,29.96,ESE,121,0.0,0.0,89,0.00,,,0.00,Wunderground v.1.15,2015-07-28 04:40:00,
2015-07-28 00:50:00,75.8,72.3,29.97,ESE,121,0.0,0.0,89,0.00,,,0.00,Wunderground v.1.15,2015-07-28 04:50:00,
2015-07-28 00:55:00,75.6,72.1,29.97,ESE,121,0.0,0.0,89,0.00,,,0.00,Wunderground v.1.15,2015-07-28 04:55:00,
2015-07-28 01:05:00,75.6,72.5,29.97,ESE,121,0.0,0.0,90,0.00,,,0.00,Wunderground v.1.15,2015-07-28 05:05:00,
2015-07-28 01:15:00,75.4,72.3,29.97,ESE,121,0.0,0.0,90,0.00,,,0.00,Wunderground v.1.15,2015-07-28 05:15:00,
2015-07-28 01:25:00,75.1,72.0,29.97,ESE,122,0.0,0.0,90,0.00,,,0.00,Wunderground v.1.15,2015-07-28 05:25:00,
2015-07-28 01:35:00,75.0,72.2,29.96,ESE,121,0.0,0.0,91,0.00,,,0.00,Wunderground v.1.15,2015-07-28 05:35:00,
2015-07-28 01:40:00,74.9,72.1,29.95,ESE,122,0.0,0.0,91,0.00,,,0.00,Wunderground v.1.15,2015-07-28 05:40:00,
2015-07-28 01:50:00,74.6,71.8,29.95,ESE,121,0.0,0.0,91,0.00,,,0.00,Wunderground v.1.15,2015-07-28 05:50:00,
2015-07-28 02:00:00,74.4,71.6,29.95,ESE,121,0.0,0.0,91,0.00,,,0.00,Wunderground v.1.15,2015-07-28 06:00:00,
2015-07-28 02:10:00,74.3,71.8,29.95,ESE,121,0.0,0.0,92,0.00,,,0.00,Wunderground v.1.15,2015-07-28 06:10:00,
2015-07-28 02:15:00,74.2,71.7,29.95,ESE,121,0.0,0.0,92,0.00,,,0.00,Wunderground v.1.15,2015-07-28 06:15:00,
2015-07-28 02:25:00,74.3,71.8,29.95,ESE,121,0.0,0.0,92,0.00,,,0.00,Wunderground v.1.15,2015-07-28 06:25:00,
2015-07-28 02:35:00,74.3,71.8,29.95,ESE,122,0.0,0.0,92,0.00,,,0.00,Wunderground v.1.15,2015-07-28 06:35:00,
2015-07-28 02:45:00,74.2,71.7,29.94,ESE,121,0.0,0.0,92,0.00,,,0.00,Wunderground v.1.15,2015-07-28 06:45:00,
2015-07-28 02:55:00,74.1,71.6,29.94,ESE,122,0.0,0.0,92,0.00,,,0.00,Wunderground v.1.15,2015-07-28 06:55:00,
2015-07-28 03:00:00,74.0,71.8,29.94,ESE,121,0.0,0.0,93,0.00,,,0.00,Wunderground v.1.15,2015-07-28 07:00:00,
2015-07-28 03:10:00,73.9,71.7,29.94,ESE,122,0.0,0.0,93,0.00,,,0.00,Wunderground v.1.15,2015-07-28 07:10:00,
2015-07-28 03:20:00,73.8,71.6,29.94,ESE,121,0.0,0.0,93,0.00,,,0.00,Wunderground v.1.15,2015-07-28 07:20:00,
2015-07-28 03:25:00,73.8,71.6,29.93,ESE,121,0.0,0.0,93,0.00,,,0.00,Wunderground v.1.15,2015-07-28 07:25:00,
2015-07-28 03:35:00,73.7,71.5,29.93,ESE,122,0.0,0.0,93,0.00,,,0.00,Wunderground v.1.15,2015-07-28 07:35:00,
2015-07-28 03:45:00,73.4,71.3,29.93,ESE,121,0.0,0.0,93,0.00,,,0.00,Wunderground v.1.15,2015-07-28 07:45:00,
2015-07-28 03:55:00,73.1,71.0,29.93,ESE,121,0.0,0.0,93,0.00,,,0.00,Wunderground v.1.15,2015-07-28 07:55:00,
2015-07-28 04:05:00,73.1,71.0,29.93,ESE,122,0.0,0.0,93,0.00,,,0.00,Wunderground v.1.15,2015-07-28 08:05:00,
2015-07-28 04:10:00,72.9,70.8,29.93,ESE,121,0.0,0.0,93,0.00,,,0.00,Wunderground v.1.15,2015-07-28 08:10:00,
2015-07-28 04:20:00,72.8,70.7,29.94,ESE,121,0.0,0.0,93,0.00,,,0.00,Wunderground v.1.15,2015-07-28 08:20:00,
2015-07-28 04:30:00,72.8,70.7,29.94,ESE,122,0.0,0.0,93,0.00,,,0.00,Wunderground v.1.15,2015-07-28 08:30:00,
2015-07-28 04:45:00,72.6,70.8,29.94,ESE,122,0.0,0.0,94,0.00,,,0.00,Wunderground v.1.15,2015-07-28 08:45:00,
2015-07-28 04:55:00,72.3,70.2,29.94,ESE,121,0.0,0.0,93,0.00,,,0.00,Wunderground v.1.15,2015-07-28 08:55:00,
2015-07-28 05:05:00,72.1,70.0,29.94,ESE,121,0.0,0.0,93,0.00,,,0.00,Wunderground v.1.15,2015-07-28 09:05:00,
2015-07-28 05:15:00,72.2,70.4,29.94,ESE,121,0.0,0.0,94,0.00,,,0.00,Wunderground v.1.15,2015-07-28 09:15:00,
2015-07-28 05:25:00,72.1,70.3,29.94,ESE,121,0.0,0.0,94,0.00,,,0.00,Wunderground v.1.15,2015-07-28 09:25:00,
2015-07-28 05:30:00,72.0,70.2,29.94,ESE,121,0.0,0.0,94,0.00,,,0.00,Wunderground v.1.15,2015-07-28 09:30:00,
2015-07-28 05:40:00,71.8,70.0,29.95,ESE,121,0.0,0.0,94,0.00,,,0.00,Wunderground v.1.15,2015-07-28 09:40:00,